createdAt,value
2023-04-17T07:13:06.941Z,12.60
2023-04-17T07:18:32.965Z,15.35
2023-04-17T07:23:57.969Z,12.95
2023-04-17T07:29:25.960Z,9.98
2023-04-17T07:34:50.909Z,8.55
2023-04-17T07:40:18.957Z,11.25
2023-04-17T07:45:45.943Z,13.60
2023-04-17T07:51:10.970Z,13.20
2023-04-17T07:56:35.993Z,9.18
2023-04-17T08:02:04.066Z,10.63
2023-04-17T08:07:27.924Z,11.38
2023-04-17T08:12:52.937Z,8.90
2023-04-17T08:18:21.040Z,11.48
2023-04-17T08:23:46.957Z,13.68
2023-04-17T08:29:11.140Z,17.48
2023-04-17T08:34:40.019Z,16.02
2023-04-17T08:40:03.954Z,14.88
2023-04-17T08:45:31.015Z,16.52
2023-04-17T08:51:01.973Z,17.05
2023-04-17T08:56:26.986Z,16.30
2023-04-17T09:01:51.116Z,18.00
2023-04-17T09:07:22.004Z,17.25
2023-04-17T09:12:48.968Z,18.83
2023-04-17T09:18:15.071Z,16.42
2023-04-17T09:23:43.995Z,17.17
2023-04-17T09:29:16.337Z,15.48
2023-04-17T09:34:40.023Z,13.20
2023-04-17T09:40:12.026Z,11.43
2023-04-17T09:45:42.873Z,12.00
2023-04-17T09:51:08.015Z,9.90
2023-04-17T09:56:35.987Z,10.88
2023-04-17T10:02:03.134Z,10.93
2023-04-17T10:07:28.090Z,10.15
2023-04-17T10:13:06.058Z,9.05
2023-04-17T10:18:32.056Z,7.30
2023-04-17T10:23:56.059Z,7.43
2023-04-17T10:29:25.136Z,7.47
2023-04-17T10:34:55.102Z,6.93
2023-04-17T10:40:27.204Z,7.05
2023-04-17T10:46:22.127Z,7.30
2023-04-17T10:51:52.120Z,7.03
2023-04-17T10:57:18.070Z,6.60
2023-04-17T11:02:50.152Z,6.43
2023-04-17T11:08:19.094Z,5.28
2023-04-17T11:13:44.143Z,6.38
2023-04-17T11:19:30.132Z,6.18
2023-04-17T11:25:03.182Z,4.82
2023-04-17T11:30:43.158Z,4.30
2023-04-17T11:41:35.119Z,3.78
2023-04-17T11:47:01.088Z,3.22
2023-04-17T11:52:26.072Z,3.45
2023-04-17T11:57:54.081Z,3.78
2023-04-17T12:03:27.219Z,3.05
2023-04-17T12:08:54.170Z,3.13
2023-04-17T12:14:28.062Z,2.90
2023-04-17T12:19:53.143Z,2.90
2023-04-17T12:25:17.098Z,2.60
2023-04-17T12:30:47.073Z,2.75
2023-04-17T12:36:13.212Z,2.63
2023-04-17T12:41:39.305Z,2.35
2023-04-17T12:47:08.153Z,3.25
2023-04-17T12:52:33.112Z,2.90
2023-04-17T12:57:57.117Z,3.05
2023-04-17T13:03:26.355Z,3.20
2023-04-17T13:08:50.110Z,3.50
2023-04-17T13:14:16.144Z,3.47
2023-04-17T13:19:54.142Z,3.50
2023-04-17T13:25:54.174Z,3.40
2023-04-17T13:31:18.174Z,3.08
2023-04-17T13:36:52.128Z,3.17
2023-04-17T13:42:35.094Z,3.20
2023-04-17T13:48:00.306Z,2.92
2023-04-17T13:53:24.141Z,3.30
2023-04-17T13:58:55.220Z,3.55
2023-04-17T14:04:19.345Z,3.50
2023-04-17T14:09:44.136Z,3.17
2023-04-17T14:15:19.131Z,3.10
2023-04-17T14:20:44.156Z,3.00
2023-04-17T14:26:08.165Z,3.10
2023-04-17T14:31:36.211Z,3.08
2023-04-17T14:37:00.200Z,3.00
2023-04-17T14:42:25.208Z,2.90
2023-04-17T14:47:52.222Z,2.80
2023-04-17T14:53:18.854Z,2.80
2023-04-17T14:58:44.193Z,3.00
2023-04-17T15:04:13.438Z,3.22
2023-04-17T15:09:37.167Z,3.20
2023-04-17T15:15:11.211Z,3.05
2023-04-17T15:20:39.204Z,3.40
2023-04-17T15:26:04.186Z,3.13
2023-04-17T15:31:29.269Z,2.97
2023-04-17T15:36:56.149Z,3.10
2023-04-17T15:42:21.168Z,3.08
2023-04-17T15:47:45.200Z,2.85
2023-04-17T15:53:13.411Z,3.00
2023-04-17T15:58:37.191Z,3.13
2023-04-17T16:03:55.355Z,2.88
2023-04-17T16:09:24.233Z,2.83
2023-04-17T16:14:49.193Z,2.90
2023-04-17T16:20:16.179Z,2.90
2023-04-17T16:25:43.234Z,3.03
2023-04-17T16:31:08.236Z,3.10
2023-04-17T16:36:33.489Z,2.85
2023-04-17T22:25:55.374Z,6.32
2023-04-17T22:31:22.434Z,6.38
2023-04-17T22:36:46.398Z,6.57
2023-04-17T23:21:56.431Z,6.47
2023-04-17T23:27:21.409Z,6.00
2023-04-17T23:32:48.444Z,6.10
2023-04-17T23:38:16.425Z,6.30
2023-04-17T23:43:40.415Z,6.60
2023-04-17T23:49:05.402Z,6.45
2023-04-17T23:54:32.428Z,7.13
2023-04-17T23:59:57.414Z,6.85
